createdAt,value
2019-03-13T00:01:52.638Z,28.15
2019-03-13T00:04:35.836Z,26.40
2019-03-13T00:07:18.432Z,27.22
2019-03-13T00:10:01.825Z,27.73
2019-03-13T00:12:37.838Z,26.80
2019-03-13T00:15:17.730Z,26.00
2019-03-13T00:17:59.847Z,27.40
2019-03-13T00:20:35.434Z,26.52
2019-03-13T00:23:03.264Z,27.10
2019-03-13T00:25:45.376Z,26.87
2019-03-13T00:28:28.390Z,26.07
2019-03-13T00:31:11.150Z,28.50
2019-03-13T00:33:39.872Z,29.00
2019-03-13T00:36:08.531Z,28.95
2019-03-13T00:38:50.767Z,29.60
2019-03-13T00:41:27.067Z,28.50
2019-03-13T00:44:16.443Z,29.90
2019-03-13T00:46:59.072Z,29.02
2019-03-13T00:49:41.397Z,29.63
2019-03-13T00:52:24.184Z,28.47
2019-03-13T00:54:52.009Z,29.67
2019-03-13T00:57:34.465Z,28.40
2019-03-13T01:00:14.326Z,30.45
2019-03-13T01:02:59.370Z,28.92
2019-03-13T01:05:28.092Z,29.63
2019-03-13T01:08:11.273Z,28.85
2019-03-13T01:10:53.278Z,29.40
2019-03-13T01:13:35.843Z,29.05
2019-03-13T01:16:17.612Z,27.42
2019-03-13T01:18:54.134Z,27.60
2019-03-13T01:21:36.647Z,28.05
2019-03-13T01:24:12.173Z,28.42
2019-03-13T01:29:23.802Z,28.62
2019-03-13T01:34:38.580Z,27.65
2019-03-13T01:37:20.855Z,28.00
2019-03-13T01:39:57.148Z,27.17
2019-03-13T01:45:16.726Z,26.42
2019-03-13T01:48:05.722Z,27.50
2019-03-13T01:50:47.620Z,27.93
2019-03-13T01:53:30.676Z,26.50
2019-03-13T01:56:06.632Z,26.62
2019-03-13T01:58:48.739Z,28.23
2019-03-13T02:01:16.553Z,27.02
2019-03-13T02:03:59.485Z,27.27
2019-03-13T02:06:35.466Z,21.15
2019-03-13T02:09:18.291Z,25.70
2019-03-13T02:11:54.713Z,27.22
2019-03-13T02:14:37.412Z,25.75
2019-03-13T02:17:19.629Z,26.53
2019-03-13T02:19:55.440Z,25.85
2019-03-13T02:22:38.539Z,26.65
2019-03-13T02:27:47.624Z,26.93
2019-03-13T02:30:28.038Z,26.50
2019-03-13T02:33:10.805Z,26.55
2019-03-13T02:35:53.244Z,24.23
2019-03-13T02:38:28.823Z,25.35
2019-03-13T02:41:31.505Z,25.15
2019-03-13T02:44:14.073Z,24.40
2019-03-13T02:46:50.633Z,24.85
2019-03-13T02:49:26.765Z,24.63
2019-03-13T02:52:09.740Z,23.22
2019-03-13T02:55:13.187Z,25.30
2019-03-13T02:57:55.315Z,24.12
2019-03-13T03:00:48.268Z,24.67
2019-03-13T03:03:35.285Z,22.77
2019-03-13T03:06:11.084Z,22.58
2019-03-13T03:08:54.186Z,22.07
2019-03-13T03:11:37.326Z,22.80
2019-03-13T03:14:13.200Z,21.95
2019-03-13T03:16:55.841Z,22.35
2019-03-13T03:19:38.824Z,21.30
2019-03-13T03:22:14.752Z,22.07
2019-03-13T03:24:57.264Z,21.55
2019-03-13T03:27:33.218Z,22.15
2019-03-13T03:30:26.083Z,21.62
2019-03-13T03:33:09.122Z,21.30
2019-03-13T03:35:44.771Z,21.20
2019-03-13T03:38:27.678Z,21.15
2019-03-13T03:40:55.495Z,21.23
2019-03-13T03:43:40.751Z,20.85
2019-03-13T03:46:16.091Z,20.20
2019-03-13T03:48:57.701Z,20.17
2019-03-13T03:51:40.073Z,19.85
2019-03-13T03:54:22.663Z,19.30
2019-03-13T03:56:58.435Z,19.23
2019-03-13T03:59:41.270Z,19.30
2019-03-13T04:02:23.252Z,19.15
2019-03-13T04:05:12.424Z,19.55
2019-03-13T04:08:01.786Z,20.27
2019-03-13T04:10:51.657Z,19.57
2019-03-13T04:13:44.728Z,19.62
2019-03-13T04:16:26.021Z,20.17
2019-03-13T04:19:14.446Z,19.67
2019-03-13T04:22:03.843Z,17.20
2019-03-13T04:24:53.613Z,17.02
2019-03-13T04:27:43.077Z,16.97
2019-03-13T04:30:32.309Z,17.45
2019-03-13T04:33:14.855Z,16.97
2019-03-13T04:35:56.940Z,16.67
2019-03-13T04:38:46.420Z,16.40
2019-03-13T04:41:35.828Z,15.65
2019-03-13T04:44:25.139Z,16.32
2019-03-13T04:46:54.585Z,16.15
2019-03-13T04:49:30.117Z,16.55
2019-03-13T04:52:06.481Z,15.63
2019-03-13T04:54:55.596Z,15.53
2019-03-13T04:57:44.694Z,15.23
2019-03-13T05:03:21.146Z,15.38
2019-03-13T05:06:10.010Z,16.10
2019-03-13T05:08:59.110Z,15.70
2019-03-13T05:11:41.493Z,14.83
2019-03-13T05:14:17.984Z,15.45
2019-03-13T05:16:59.880Z,14.68
2019-03-13T05:19:49.168Z,14.55
2019-03-13T05:27:30.659Z,14.95
2019-03-13T05:30:15.830Z,15.28
2019-03-13T05:33:05.348Z,14.00
2019-03-13T05:35:54.911Z,14.03
2019-03-13T05:38:44.506Z,13.38
2019-03-13T05:41:33.844Z,14.95
2019-03-13T05:44:03.370Z,13.15
2019-03-13T05:46:53.367Z,13.55
2019-03-13T05:49:42.519Z,12.80
2019-03-13T05:52:32.255Z,13.75
2019-03-13T05:55:21.056Z,13.20
2019-03-13T05:58:03.068Z,14.53
2019-03-13T06:00:52.036Z,13.62
2019-03-13T06:03:40.567Z,13.25
2019-03-13T06:06:22.446Z,13.53
2019-03-13T06:09:11.820Z,14.18
2019-03-13T06:12:01.329Z,13.68
2019-03-13T06:14:50.310Z,14.13
2019-03-13T06:17:32.999Z,13.25
2019-03-13T06:20:26.030Z,13.72
2019-03-13T06:23:08.601Z,13.90
2019-03-13T06:25:44.333Z,9.98
2019-03-13T06:28:33.338Z,13.98
2019-03-13T06:31:16.071Z,13.75
2019-03-13T06:34:05.532Z,12.90
2019-03-13T06:36:54.780Z,13.78
2019-03-13T06:39:37.500Z,12.58
2019-03-13T06:42:26.817Z,10.47
2019-03-13T06:45:16.388Z,13.95
2019-03-13T06:48:05.933Z,13.08
2019-03-13T06:50:54.691Z,13.75
2019-03-13T06:53:43.891Z,13.35
2019-03-13T06:56:33.286Z,12.75
2019-03-13T06:59:27.776Z,11.53
2019-03-13T07:02:22.196Z,14.50
2019-03-13T07:05:13.208Z,11.15
2019-03-13T07:08:00.395Z,12.58
2019-03-13T07:11:06.780Z,13.53
2019-03-13T07:14:14.397Z,12.75
2019-03-13T07:17:05.715Z,10.82
2019-03-13T07:22:38.235Z,13.28
2019-03-13T07:25:29.312Z,12.93
2019-03-13T07:28:21.255Z,13.85
2019-03-13T07:31:24.798Z,12.33
2019-03-13T07:34:21.218Z,16.32
2019-03-13T07:37:05.400Z,13.30
2019-03-13T07:40:01.490Z,14.35
2019-03-13T07:42:55.335Z,14.50
2019-03-13T07:50:50.410Z,15.72
2019-03-13T07:53:33.950Z,17.85
2019-03-13T07:56:14.285Z,18.52
2019-03-13T07:58:57.771Z,16.77
2019-03-13T08:01:50.327Z,15.48
2019-03-13T08:04:57.574Z,13.10
2019-03-13T08:07:54.730Z,13.80
2019-03-13T08:10:54.888Z,14.07
2019-03-13T08:13:45.628Z,14.20
2019-03-13T08:16:32.280Z,14.28
2019-03-13T08:25:11.642Z,13.75
2019-03-13T08:28:14.332Z,13.58
2019-03-13T08:31:08.782Z,13.55
2019-03-13T08:34:19.683Z,13.08
2019-03-13T08:37:07.206Z,11.55
2019-03-13T08:40:07.095Z,13.90
2019-03-13T08:43:04.620Z,12.80
2019-03-13T08:45:54.147Z,12.88
2019-03-13T08:48:44.821Z,13.10
2019-03-13T08:51:48.778Z,13.83
2019-03-13T08:54:42.726Z,13.35
2019-03-13T09:00:18.223Z,10.90
2019-03-13T09:03:36.225Z,15.15
2019-03-13T09:06:38.848Z,12.95
2019-03-13T09:09:30.435Z,13.70
2019-03-13T09:12:14.336Z,13.98
2019-03-13T09:15:14.258Z,12.20
2019-03-13T09:18:11.739Z,13.05
2019-03-13T09:21:11.204Z,13.00
2019-03-13T09:24:07.882Z,13.18
2019-03-13T09:27:09.075Z,11.63
2019-03-13T09:29:52.814Z,12.55
2019-03-13T09:32:37.513Z,11.68
2019-03-13T09:36:00.573Z,12.73
2019-03-13T09:39:02.933Z,10.00
2019-03-13T09:41:43.237Z,10.20
2019-03-13T09:44:45.479Z,10.18
2019-03-13T09:47:26.073Z,9.75
2019-03-13T09:50:10.778Z,10.10
2019-03-13T09:52:48.234Z,10.82
2019-03-13T09:55:34.431Z,9.30
2019-03-13T09:58:27.046Z,8.90
2019-03-13T10:01:34.117Z,9.78
2019-03-13T10:04:21.334Z,9.68
2019-03-13T10:07:02.606Z,9.65
2019-03-13T10:09:52.971Z,9.68
2019-03-13T10:12:33.358Z,7.90
2019-03-13T10:18:06.854Z,10.03
2019-03-13T10:21:03.109Z,6.33
2019-03-13T10:23:50.355Z,8.80
2019-03-13T10:26:34.334Z,7.53
2019-03-13T10:29:14.987Z,5.40
2019-03-13T10:32:17.174Z,5.08
2019-03-13T10:34:54.895Z,7.15
2019-03-13T10:40:41.044Z,5.03
2019-03-13T10:43:30.673Z,6.47
2019-03-13T10:46:08.687Z,5.35
2019-03-13T10:49:08.903Z,6.97
2019-03-13T10:52:06.413Z,5.15
2019-03-13T10:54:56.068Z,5.67
2019-03-13T10:57:49.929Z,6.55
2019-03-13T11:00:45.514Z,5.72
2019-03-13T11:03:23.539Z,6.60
2019-03-13T11:06:07.388Z,4.03
2019-03-13T11:08:45.420Z,5.03
2019-03-13T11:11:23.042Z,3.72
2019-03-13T11:13:54.180Z,5.17
2019-03-13T11:16:37.024Z,5.70
2019-03-13T11:19:11.190Z,4.87
2019-03-13T11:21:55.414Z,6.05
2019-03-13T11:24:54.705Z,6.37
2019-03-13T11:27:48.129Z,5.42
2019-03-13T11:30:25.955Z,5.00
2019-03-13T11:33:11.978Z,3.27
2019-03-13T11:35:58.203Z,2.77
2019-03-13T11:38:54.845Z,2.98
2019-03-13T11:41:42.038Z,2.65
2019-03-13T11:44:35.388Z,3.00
2019-03-13T11:47:42.968Z,3.33
2019-03-13T11:50:23.551Z,2.50
2019-03-13T11:53:19.021Z,1.80
2019-03-13T11:56:09.305Z,3.50
2019-03-13T11:59:05.865Z,2.67
2019-03-13T12:01:46.806Z,2.50
2019-03-13T12:04:39.431Z,2.98
2019-03-13T12:07:17.137Z,2.37
2019-03-13T12:10:01.667Z,2.52
2019-03-13T12:12:42.427Z,2.55
2019-03-13T12:15:42.639Z,2.77
2019-03-13T12:18:36.092Z,2.45
2019-03-13T12:21:41.495Z,2.50
2019-03-13T12:27:33.539Z,2.80
2019-03-13T12:30:15.597Z,2.00
2019-03-13T12:32:58.500Z,2.25
2019-03-13T12:35:54.405Z,2.60
2019-03-13T12:38:37.451Z,2.02
2019-03-13T12:41:26.811Z,2.35
2019-03-13T12:44:10.228Z,1.98
2019-03-13T12:46:56.942Z,2.17
2019-03-13T12:49:30.795Z,2.47
2019-03-13T12:52:18.820Z,1.45
2019-03-13T12:55:13.413Z,2.45
2019-03-13T12:58:03.500Z,2.10
2019-03-13T13:00:37.398Z,1.70
2019-03-13T13:03:21.110Z,1.95
2019-03-13T13:08:45.467Z,2.58
2019-03-13T13:11:34.379Z,1.82
2019-03-13T13:14:20.578Z,1.95
2019-03-13T13:16:57.896Z,2.52
2019-03-13T13:19:27.335Z,1.90
2019-03-13T13:22:03.324Z,1.72
2019-03-13T13:24:32.828Z,2.12
2019-03-13T13:27:15.324Z,2.00
2019-03-13T13:29:58.759Z,2.02
2019-03-13T13:32:28.213Z,1.95
2019-03-13T13:35:04.094Z,2.37
2019-03-13T13:37:33.630Z,2.52
2019-03-13T13:40:09.312Z,2.40
2019-03-13T13:42:39.702Z,2.40
2019-03-13T13:45:36.986Z,2.20
2019-03-13T13:48:13.106Z,2.17
2019-03-13T13:50:49.092Z,3.15
2019-03-13T13:53:18.602Z,3.42
2019-03-13T13:55:48.117Z,2.52
2019-03-13T13:58:24.609Z,2.70
2019-03-13T14:00:54.077Z,2.80
2019-03-13T14:03:30.055Z,3.00
2019-03-13T14:06:06.296Z,2.50
2019-03-13T14:08:42.986Z,2.80
2019-03-13T14:11:12.531Z,2.85
2019-03-13T14:13:42.187Z,2.42
2019-03-13T14:16:18.429Z,2.83
2019-03-13T14:18:48.010Z,4.40
2019-03-13T14:21:24.638Z,5.45
2019-03-13T14:23:54.156Z,23.20
2019-03-13T14:26:36.476Z,2.65
2019-03-13T14:29:19.047Z,2.72
2019-03-13T14:31:48.564Z,3.55
2019-03-13T14:34:18.234Z,14.45
2019-03-13T14:36:53.998Z,72.82
2019-03-13T14:39:23.585Z,14.23
2019-03-13T14:41:59.573Z,6.67
2019-03-13T14:44:29.093Z,5.35
2019-03-13T14:47:05.485Z,19.48
2019-03-13T14:49:35.159Z,15.03
2019-03-13T14:52:31.104Z,23.87
2019-03-13T14:55:13.961Z,15.53
2019-03-13T14:57:50.181Z,12.87
2019-03-13T15:00:26.417Z,11.90
2019-03-13T15:03:02.518Z,10.53
2019-03-13T15:05:32.420Z,5.22
2019-03-13T15:08:08.828Z,12.63
2019-03-13T15:10:44.844Z,13.50
2019-03-13T15:13:21.362Z,10.08
2019-03-13T15:15:57.106Z,12.70
2019-03-13T15:18:26.583Z,12.13
2019-03-13T15:21:02.820Z,6.10
2019-03-13T15:23:32.259Z,5.10
2019-03-13T15:26:08.519Z,4.00
2019-03-13T15:28:38.197Z,4.87
2019-03-13T15:31:21.557Z,8.00
2019-03-13T15:33:51.019Z,8.00
2019-03-13T15:36:27.571Z,6.47
2019-03-13T15:38:57.030Z,6.22
2019-03-13T15:41:26.605Z,5.72
2019-03-13T15:44:02.545Z,9.78
2019-03-13T15:46:32.901Z,5.22
2019-03-13T15:49:08.898Z,8.75
2019-03-13T15:51:45.057Z,8.93
2019-03-13T15:54:21.641Z,13.15
2019-03-13T15:57:04.223Z,11.08
2019-03-13T15:59:33.990Z,9.20
2019-03-13T16:02:10.518Z,8.03
2019-03-13T16:04:39.977Z,8.88
2019-03-13T16:07:16.352Z,9.20
2019-03-13T16:09:52.354Z,7.12
2019-03-13T16:12:28.989Z,4.17
2019-03-13T16:15:04.517Z,6.15
2019-03-13T16:17:34.093Z,5.22
2019-03-13T16:20:05.373Z,5.78
2019-03-13T16:22:41.254Z,5.30
2019-03-13T16:25:18.407Z,18.25
2019-03-13T16:27:54.064Z,17.87
2019-03-13T16:30:44.113Z,19.40
2019-03-13T16:33:19.923Z,6.55
2019-03-13T16:35:49.629Z,10.00
2019-03-13T16:38:25.264Z,17.35
2019-03-13T16:41:01.114Z,11.28
2019-03-13T16:43:31.123Z,15.65
2019-03-13T16:46:08.421Z,16.62
2019-03-13T16:48:44.365Z,18.15
2019-03-13T16:51:14.036Z,10.75
2019-03-13T16:53:56.604Z,12.05
2019-03-13T16:56:32.910Z,11.08
2019-03-13T16:59:08.837Z,11.25
2019-03-13T17:01:38.530Z,7.30
2019-03-13T17:04:15.047Z,8.00
2019-03-13T17:06:44.489Z,6.12
2019-03-13T17:09:14.001Z,5.67
2019-03-13T17:11:49.659Z,3.92
2019-03-13T17:14:19.177Z,4.05
2019-03-13T17:16:55.091Z,5.22
2019-03-13T17:19:24.546Z,4.90
2019-03-13T17:22:00.746Z,4.03
2019-03-13T17:24:30.294Z,4.00
2019-03-13T17:27:06.753Z,4.25
2019-03-13T17:29:49.431Z,4.22
2019-03-13T17:32:25.036Z,4.40
2019-03-13T17:34:54.490Z,4.45
2019-03-13T17:37:30.564Z,5.62
2019-03-13T17:40:00.054Z,5.70
2019-03-13T17:42:36.804Z,6.03
2019-03-13T17:45:16.161Z,5.80
2019-03-13T17:47:52.426Z,6.33
2019-03-13T17:50:23.638Z,5.80
2019-03-13T17:52:59.841Z,10.00
2019-03-13T17:55:36.432Z,6.87
2019-03-13T17:58:22.656Z,7.72
2019-03-13T18:00:53.297Z,9.13
2019-03-13T18:03:31.618Z,11.00
2019-03-13T18:06:07.408Z,23.45
2019-03-13T18:08:44.123Z,9.35
2019-03-13T18:11:20.383Z,9.55
2019-03-13T18:13:55.975Z,9.28
2019-03-13T18:16:32.235Z,9.83
2019-03-13T18:19:08.533Z,12.60
2019-03-13T18:21:45.910Z,11.25
2019-03-13T18:24:15.504Z,10.20
2019-03-13T18:26:52.338Z,9.25
2019-03-13T18:29:35.264Z,9.78
2019-03-13T18:32:11.282Z,8.73
2019-03-13T18:34:41.317Z,8.15
2019-03-13T18:37:10.979Z,8.55
2019-03-13T18:39:47.548Z,9.08
2019-03-13T18:42:25.548Z,7.20
2019-03-13T18:44:55.188Z,6.55
2019-03-13T18:47:25.168Z,7.80
2019-03-13T18:50:01.920Z,7.22
2019-03-13T18:52:45.183Z,8.70
2019-03-13T18:55:32.206Z,7.95
2019-03-13T18:58:15.183Z,18.35
2019-03-13T19:00:45.871Z,9.53
2019-03-13T19:03:22.648Z,13.62
2019-03-13T19:05:54.643Z,28.45
2019-03-13T19:08:31.028Z,13.58
2019-03-13T19:11:00.697Z,8.83
2019-03-13T19:13:36.898Z,9.75
2019-03-13T19:16:13.017Z,10.05
2019-03-13T19:18:42.541Z,7.90
2019-03-13T19:21:19.044Z,5.97
2019-03-13T19:23:54.723Z,7.03
2019-03-13T19:26:31.408Z,7.30
2019-03-13T19:29:01.647Z,9.60
2019-03-13T19:31:44.820Z,6.90
2019-03-13T19:34:20.615Z,6.05
2019-03-13T19:36:56.426Z,6.05
2019-03-13T19:39:26.090Z,6.60
2019-03-13T19:42:02.136Z,5.55
2019-03-13T19:44:31.792Z,7.65
2019-03-13T19:47:08.627Z,9.58
2019-03-13T19:49:38.158Z,11.05
2019-03-13T19:52:07.820Z,8.63
2019-03-13T19:54:53.737Z,9.70
2019-03-13T19:57:36.861Z,13.15
2019-03-13T20:00:20.850Z,12.10
2019-03-13T20:03:00.338Z,11.65
2019-03-13T20:05:45.229Z,9.58
2019-03-13T20:08:07.215Z,12.65
2019-03-13T20:10:43.818Z,13.03
2019-03-13T20:13:13.580Z,11.45
2019-03-13T20:15:50.104Z,10.50
2019-03-13T20:18:19.623Z,10.18
2019-03-13T20:20:55.909Z,9.08
2019-03-13T20:23:25.645Z,15.15
2019-03-13T20:25:55.237Z,15.43
2019-03-13T20:28:32.404Z,10.10
2019-03-13T20:31:08.964Z,10.93
2019-03-13T20:33:44.989Z,11.73
2019-03-13T20:36:21.676Z,8.50
2019-03-13T20:38:51.269Z,8.18
2019-03-13T20:41:28.163Z,8.45
2019-03-13T20:44:04.450Z,6.80
2019-03-13T20:46:34.044Z,6.60
2019-03-13T20:49:11.361Z,6.33
2019-03-13T20:51:47.477Z,7.22
2019-03-13T20:54:17.087Z,7.53
2019-03-13T20:56:46.622Z,7.10
2019-03-13T20:59:22.815Z,7.15
2019-03-13T21:02:00.390Z,13.65
2019-03-13T21:04:36.506Z,11.48
2019-03-13T21:07:12.928Z,9.83
2019-03-13T21:09:42.458Z,9.85
2019-03-13T21:12:18.845Z,8.03
2019-03-13T21:15:01.909Z,7.50
2019-03-13T21:17:31.363Z,7.50
2019-03-13T21:20:07.940Z,7.45
2019-03-13T21:22:37.548Z,7.15
2019-03-13T21:25:17.761Z,7.75
2019-03-13T21:27:48.332Z,6.78
2019-03-13T21:30:30.869Z,7.10
2019-03-13T21:33:07.069Z,7.35
2019-03-13T21:35:43.319Z,7.20
2019-03-13T21:38:19.550Z,7.65
2019-03-13T21:40:49.162Z,9.05
2019-03-13T21:43:25.466Z,11.15
2019-03-13T21:46:01.433Z,7.10
2019-03-13T21:48:30.950Z,9.40
2019-03-13T21:51:06.826Z,8.63
2019-03-13T21:53:36.271Z,7.78
2019-03-13T21:56:12.457Z,8.10
2019-03-13T21:58:44.457Z,6.42
2019-03-13T22:01:27.363Z,8.18
2019-03-13T22:03:56.833Z,8.13
2019-03-13T22:06:33.407Z,7.58
2019-03-13T22:09:04.299Z,7.60
2019-03-13T22:11:33.876Z,6.95
2019-03-13T22:14:09.920Z,6.47
2019-03-13T22:16:46.220Z,6.45
2019-03-13T22:19:22.309Z,6.72
2019-03-13T22:21:51.758Z,6.75
2019-03-13T22:24:28.660Z,7.15
2019-03-13T22:27:05.391Z,6.40
2019-03-13T22:29:47.481Z,6.05
2019-03-13T22:32:23.194Z,7.50
2019-03-13T22:35:05.466Z,8.38
2019-03-13T22:37:41.392Z,6.22
2019-03-13T22:40:20.892Z,6.15
2019-03-13T22:42:57.400Z,6.60
2019-03-13T22:45:26.925Z,6.92
2019-03-13T22:48:03.814Z,6.70
2019-03-13T22:50:40.198Z,6.60
2019-03-13T22:53:09.727Z,7.08
2019-03-13T22:58:51.724Z,7.12
2019-03-13T23:01:28.179Z,7.53
2019-03-13T23:03:57.900Z,7.30
2019-03-13T23:06:34.559Z,6.42
2019-03-13T23:09:05.586Z,6.75
2019-03-13T23:11:35.106Z,7.35
2019-03-13T23:14:11.281Z,7.65
2019-03-13T23:16:47.165Z,6.75
2019-03-13T23:19:17.629Z,7.70
2019-03-13T23:22:00.818Z,6.90
2019-03-13T23:24:30.337Z,7.00
2019-03-13T23:27:06.827Z,6.72
2019-03-13T23:29:36.431Z,7.58
2019-03-13T23:32:13.372Z,8.23
2019-03-13T23:34:48.887Z,8.60
2019-03-13T23:37:25.431Z,7.85
2019-03-13T23:39:54.879Z,7.60
2019-03-13T23:42:24.326Z,8.38
2019-03-13T23:45:00.652Z,7.60
2019-03-13T23:47:37.862Z,7.67
2019-03-13T23:50:13.221Z,7.37
2019-03-13T23:52:49.993Z,7.87
2019-03-13T23:55:26.769Z,7.22
2019-03-13T23:58:11.497Z,7.70
